sensor_id;sensor_type;location;lat;lon;timestamp;pressure;altitude;pressure_sealevel;temperature;humidity
40205;BME280;26963;42.666;23.366;2023-01-30T00:01:16;95161.56;;;3.03;54.70
40205;BME280;26963;42.666;23.366;2023-01-30T00:03:43;95190.06;;;3.18;54.72
40205;BME280;26963;42.666;23.366;2023-01-30T00:06:09;95168.75;;;3.07;54.89
40205;BME280;26963;42.666;23.366;2023-01-30T00:08:35;95168.13;;;3.00;54.67
40205;BME280;26963;42.666;23.366;2023-01-30T00:11:09;95177.34;;;3.15;54.76
40205;BME280;26963;42.666;23.366;2023-01-30T00:13:35;95177.91;;;3.17;55.03
40205;BME280;26963;42.666;23.366;2023-01-30T00:16:01;95156.72;;;3.00;54.63
40205;BME280;26963;42.666;23.366;2023-01-30T00:18:27;95141.03;;;2.93;55.07
40205;BME280;26963;42.666;23.366;2023-01-30T00:20:56;95179.03;;;3.21;55.12
40205;BME280;26963;42.666;23.366;2023-01-30T00:23:22;95114.56;;;2.76;54.64
40205;BME280;26963;42.666;23.366;2023-01-30T00:25:47;95170.94;;;3.10;54.78
40205;BME280;26963;42.666;23.366;2023-01-30T00:28:13;95167.34;;;3.17;54.75
40205;BME280;26963;42.666;23.366;2023-01-30T00:30:38;95112.09;;;2.69;54.90
40205;BME280;26963;42.666;23.366;2023-01-30T00:33:04;95184.72;;;3.13;54.76
40205;BME280;26963;42.666;23.366;2023-01-30T00:35:29;95084.91;;;2.57;55.16
40205;BME280;26963;42.666;23.366;2023-01-30T00:37:58;95184.69;;;2.96;54.84
40205;BME280;26963;42.666;23.366;2023-01-30T00:40:25;95182.56;;;2.81;55.48
40205;BME280;26963;42.666;23.366;2023-01-30T00:42:51;95164.91;;;2.69;55.90
40205;BME280;26963;42.666;23.366;2023-01-30T00:45:36;95029.69;;;1.81;55.90
40205;BME280;26963;42.666;23.366;2023-01-30T00:48:22;95115.31;;;2.42;56.41
40205;BME280;26963;42.666;23.366;2023-01-30T00:50:49;95158.44;;;2.77;56.40
40205;BME280;26963;42.666;23.366;2023-01-30T00:53:15;95150.09;;;2.68;55.86
40205;BME280;26963;42.666;23.366;2023-01-30T00:55:44;95173.13;;;2.85;56.18
40205;BME280;26963;42.666;23.366;2023-01-30T00:58:11;95098.44;;;2.43;55.53
40205;BME280;26963;42.666;23.366;2023-01-30T01:00:37;95160.84;;;2.78;55.73
40205;BME280;26963;42.666;23.366;2023-01-30T01:03:03;95155.88;;;2.65;55.90
40205;BME280;26963;42.666;23.366;2023-01-30T01:05:29;95170.53;;;2.73;56.03
40205;BME280;26963;42.666;23.366;2023-01-30T01:07:55;95164.50;;;2.60;55.85
40205;BME280;26963;42.666;23.366;2023-01-30T01:10:20;95130.03;;;2.38;55.97
40205;BME280;26963;42.666;23.366;2023-01-30T01:12:48;95093.94;;;2.15;56.25
40205;BME280;26963;42.666;23.366;2023-01-30T01:15:14;95102.09;;;2.14;56.29
40205;BME280;26963;42.666;23.366;2023-01-30T01:17:40;95129.63;;;2.47;57.33
40205;BME280;26963;42.666;23.366;2023-01-30T01:20:09;95104.72;;;2.14;56.63
40205;BME280;26963;42.666;23.366;2023-01-30T01:22:36;95143.59;;;2.59;56.97
40205;BME280;26963;42.666;23.366;2023-01-30T01:25:01;95041.94;;;1.87;56.39
40205;BME280;26963;42.666;23.366;2023-01-30T01:27:28;95119.81;;;2.30;56.42
40205;BME280;26963;42.666;23.366;2023-01-30T01:29:53;95152.72;;;2.39;56.96
40205;BME280;26963;42.666;23.366;2023-01-30T01:32:19;95108.97;;;2.15;57.34
40205;BME280;26963;42.666;23.366;2023-01-30T01:34:45;95159.28;;;2.37;56.80
40205;BME280;26963;42.666;23.366;2023-01-30T01:37:11;95119.81;;;2.30;56.80
40205;BME280;26963;42.666;23.366;2023-01-30T01:39:37;95105.84;;;2.18;56.72
40205;BME280;26963;42.666;23.366;2023-01-30T01:42:22;95095.69;;;2.09;56.65
40205;BME280;26963;42.666;23.366;2023-01-30T01:47:33;95135.66;;;2.30;56.85
40205;BME280;26963;42.666;23.366;2023-01-30T01:50:00;95123.03;;;2.32;56.76
40205;BME280;26963;42.666;23.366;2023-01-30T01:52:26;95155.00;;;2.48;56.25
40205;BME280;26963;42.666;23.366;2023-01-30T01:54:54;95155.00;;;2.48;56.48
40205;BME280;26963;42.666;23.366;2023-01-30T01:57:26;95134.25;;;2.39;56.36
40205;BME280;26963;42.666;23.366;2023-01-30T02:02:36;95079.16;;;2.02;56.73
40205;BME280;26963;42.666;23.366;2023-01-30T02:05:03;94889.03;;;0.70;56.71
40205;BME280;26963;42.666;23.366;2023-01-30T02:09:59;95128.88;;;2.34;56.52
40205;BME280;26963;42.666;23.366;2023-01-30T02:12:25;95129.34;;;2.31;56.16
40205;BME280;26963;42.666;23.366;2023-01-30T02:14:51;95127.94;;;2.40;56.08
40205;BME280;26963;42.666;23.366;2023-01-30T02:17:19;95071.25;;;2.02;56.28
40205;BME280;26963;42.666;23.366;2023-01-30T02:22:43;95149.91;;;2.58;55.78
40205;BME280;26963;42.666;23.366;2023-01-30T02:33:59;95144.72;;;2.63;56.09
40205;BME280;26963;42.666;23.366;2023-01-30T02:37:00;95134.50;;;2.67;55.76
40205;BME280;26963;42.666;23.366;2023-01-30T02:42:48;95117.94;;;2.71;55.10
40205;BME280;26963;42.666;23.366;2023-01-30T02:45:29;95070.78;;;2.34;54.70
40205;BME280;26963;42.666;23.366;2023-01-30T02:48:02;95111.41;;;2.62;55.11
40205;BME280;26963;42.666;23.366;2023-01-30T02:50:33;95046.13;;;2.28;54.74
40205;BME280;26963;42.666;23.366;2023-01-30T02:53:03;95079.28;;;2.36;55.19
40205;BME280;26963;42.666;23.366;2023-01-30T02:55:29;95087.63;;;2.45;55.30
40205;BME280;26963;42.666;23.366;2023-01-30T02:57:55;95096.91;;;2.48;54.98
40205;BME280;26963;42.666;23.366;2023-01-30T03:12:08;95079.78;;;2.50;54.54
40205;BME280;26963;42.666;23.366;2023-01-30T03:15:03;95125.00;;;2.83;54.67
40205;BME280;26963;42.666;23.366;2023-01-30T03:17:30;95087.38;;;2.47;54.35
40205;BME280;26963;42.666;23.366;2023-01-30T03:19:57;95042.69;;;2.28;54.13
40205;BME280;26963;42.666;23.366;2023-01-30T03:22:23;95094.25;;;2.76;54.39
40205;BME280;26963;42.666;23.366;2023-01-30T03:24:51;95092.16;;;2.78;54.40
40205;BME280;26963;42.666;23.366;2023-01-30T03:27:18;95094.41;;;2.87;54.12
40205;BME280;26963;42.666;23.366;2023-01-30T03:29:44;95090.75;;;2.88;54.41
40205;BME280;26963;42.666;23.366;2023-01-30T03:32:09;94969.44;;;2.06;54.35
40205;BME280;26963;42.666;23.366;2023-01-30T03:34:35;95090.75;;;2.88;53.97
40205;BME280;26963;42.666;23.366;2023-01-30T03:37:01;95066.47;;;2.74;53.47
40205;BME280;26963;42.666;23.366;2023-01-30T03:39:27;95035.31;;;2.59;54.16
40205;BME280;26963;42.666;23.366;2023-01-30T03:41:52;95006.97;;;2.54;54.12
40205;BME280;26963;42.666;23.366;2023-01-30T03:44:18;95026.19;;;2.50;52.78
40205;BME280;26963;42.666;23.366;2023-01-30T03:46:44;95069.72;;;2.81;53.72
40205;BME280;26963;42.666;23.366;2023-01-30T03:49:10;95063.66;;;2.81;53.75
40205;BME280;26963;42.666;23.366;2023-01-30T03:51:35;95086.94;;;2.84;53.66
40205;BME280;26963;42.666;23.366;2023-01-30T03:54:01;95092.16;;;2.78;53.33
40205;BME280;26963;42.666;23.366;2023-01-30T03:56:26;95087.19;;;2.82;53.74
40205;BME280;26963;42.666;23.366;2023-01-30T03:58:55;95076.53;;;2.77;53.87
40205;BME280;26963;42.666;23.366;2023-01-30T04:01:20;95088.81;;;2.83;54.09
40205;BME280;26963;42.666;23.366;2023-01-30T04:03:46;95062.13;;;2.68;54.16
40205;BME280;26963;42.666;23.366;2023-01-30T04:06:11;95067.81;;;2.76;54.29
40205;BME280;26963;42.666;23.366;2023-01-30T04:08:37;94906.16;;;1.77;54.34
40205;BME280;26963;42.666;23.366;2023-01-30T04:11:02;95081.78;;;2.89;54.48
40205;BME280;26963;42.666;23.366;2023-01-30T04:13:28;95021.69;;;2.50;54.42
40205;BME280;26963;42.666;23.366;2023-01-30T04:16:21;95072.16;;;2.83;54.14
40205;BME280;26963;42.666;23.366;2023-01-30T04:18:48;95048.22;;;2.72;54.42
40205;BME280;26963;42.666;23.366;2023-01-30T04:21:14;95013.50;;;2.52;54.26
40205;BME280;26963;42.666;23.366;2023-01-30T04:23:40;95071.50;;;2.92;54.45
40205;BME280;26963;42.666;23.366;2023-01-30T04:26:06;95060.13;;;2.92;53.78
40205;BME280;26963;42.666;23.366;2023-01-30T04:28:33;95082.41;;;2.96;54.15
40205;BME280;26963;42.666;23.366;2023-01-30T04:30:58;95088.34;;;3.03;54.64
40205;BME280;26963;42.666;23.366;2023-01-30T04:33:24;95084.66;;;3.04;54.65
40205;BME280;26963;42.666;23.366;2023-01-30T04:35:53;95086.81;;;3.07;54.54
40205;BME280;26963;42.666;23.366;2023-01-30T04:38:20;95074.88;;;3.05;54.28
40205;BME280;26963;42.666;23.366;2023-01-30T04:40:51;94991.28;;;2.48;54.01
40205;BME280;26963;42.666;23.366;2023-01-30T04:43:17;95039.16;;;2.68;53.88
40205;BME280;26963;42.666;23.366;2023-01-30T04:45:47;94981.19;;;2.44;54.36
40205;BME280;26963;42.666;23.366;2023-01-30T04:48:14;95078.88;;;3.07;54.31
40205;BME280;26963;42.666;23.366;2023-01-30T04:50:41;94998.25;;;2.54;53.73
40205;BME280;26963;42.666;23.366;2023-01-30T04:53:07;95065.25;;;2.82;54.00
40205;BME280;26963;42.666;23.366;2023-01-30T04:55:32;94982.94;;;2.39;54.17
40205;BME280;26963;42.666;23.366;2023-01-30T04:57:58;95047.16;;;2.73;54.30
40205;BME280;26963;42.666;23.366;2023-01-30T05:00:23;95059.34;;;2.91;54.74
40205;BME280;26963;42.666;23.366;2023-01-30T05:02:50;95022.97;;;2.82;54.68
40205;BME280;26963;42.666;23.366;2023-01-30T05:05:15;95027.00;;;2.84;54.82
40205;BME280;26963;42.666;23.366;2023-01-30T05:07:44;95034.91;;;2.84;55.04
40205;BME280;26963;42.666;23.366;2023-01-30T05:10:10;95040.53;;;2.88;55.23
40205;BME280;26963;42.666;23.366;2023-01-30T05:12:35;95020.41;;;2.70;54.70
40205;BME280;26963;42.666;23.366;2023-01-30T05:15:01;95063.44;;;2.99;54.82
40205;BME280;26963;42.666;23.366;2023-01-30T05:17:27;95055.97;;;2.96;54.39
40205;BME280;26963;42.666;23.366;2023-01-30T05:19:54;95020.09;;;2.66;54.51
40205;BME280;26963;42.666;23.366;2023-01-30T05:22:20;95064.72;;;2.97;54.84
40205;BME280;26963;42.666;23.366;2023-01-30T05:24:45;95033.16;;;2.73;55.19
40205;BME280;26963;42.666;23.366;2023-01-30T05:27:11;94994.41;;;2.44;55.23
40205;BME280;26963;42.666;23.366;2023-01-30T05:29:37;95049.88;;;2.78;54.78
40205;BME280;26963;42.666;23.366;2023-01-30T05:32:03;95013.50;;;2.52;54.76
40205;BME280;26963;42.666;23.366;2023-01-30T05:34:28;95061.97;;;2.74;54.78
40205;BME280;26963;42.666;23.366;2023-01-30T05:36:54;95062.28;;;2.78;55.50
40205;BME280;26963;42.666;23.366;2023-01-30T05:39:19;95016.72;;;2.54;55.12
40205;BME280;26963;42.666;23.366;2023-01-30T05:41:45;95068.94;;;2.81;55.38
40205;BME280;26963;42.666;23.366;2023-01-30T05:44:10;95065.19;;;2.76;55.17
40205;BME280;26963;42.666;23.366;2023-01-30T05:46:36;95073.34;;;2.75;55.55
40205;BME280;26963;42.666;23.366;2023-01-30T05:49:01;94963.38;;;2.06;56.18
40205;BME280;26963;42.666;23.366;2023-01-30T05:51:28;95076.28;;;2.78;56.51
40205;BME280;26963;42.666;23.366;2023-01-30T05:53:54;95009.91;;;2.41;56.53
40205;BME280;26963;42.666;23.366;2023-01-30T05:56:20;95037.88;;;2.54;56.33
40205;BME280;26963;42.666;23.366;2023-01-30T05:58:53;95029.38;;;2.52;56.14
40205;BME280;26963;42.666;23.366;2023-01-30T06:01:20;95001.41;;;2.22;56.21
40205;BME280;26963;42.666;23.366;2023-01-30T06:03:46;95093.13;;;2.72;56.14
40205;BME280;26963;42.666;23.366;2023-01-30T06:06:12;95093.44;;;2.76;57.21
40205;BME280;26963;42.666;23.366;2023-01-30T06:08:38;94987.88;;;2.18;57.15
40205;BME280;26963;42.666;23.366;2023-01-30T06:11:06;95009.59;;;2.37;57.38
40205;BME280;26963;42.666;23.366;2023-01-30T06:13:33;94948.97;;;1.97;57.36
40205;BME280;26963;42.666;23.366;2023-01-30T06:15:59;95061.50;;;2.77;57.13
40205;BME280;26963;42.666;23.366;2023-01-30T06:18:25;94999.13;;;2.42;57.18
40205;BME280;26963;42.666;23.366;2023-01-30T06:20:51;95052.06;;;2.82;57.40
40205;BME280;26963;42.666;23.366;2023-01-30T06:23:17;95058.00;;;2.89;57.64
40205;BME280;26963;42.666;23.366;2023-01-30T06:25:44;94953.50;;;2.30;57.18
40205;BME280;26963;42.666;23.366;2023-01-30T06:28:10;95022.66;;;2.78;56.75
40205;BME280;26963;42.666;23.366;2023-01-30T06:30:39;95054.94;;;2.97;56.26
40205;BME280;26963;42.666;23.366;2023-01-30T06:33:05;95051.19;;;2.93;56.56
40205;BME280;26963;42.666;23.366;2023-01-30T06:35:31;94938.75;;;2.00;56.66
40205;BME280;26963;42.666;23.366;2023-01-30T06:37:57;95073.94;;;2.94;56.44
40205;BME280;26963;42.666;23.366;2023-01-30T06:40:22;95006.00;;;2.43;56.77
40205;BME280;26963;42.666;23.366;2023-01-30T06:42:48;95002.94;;;2.35;55.95
40205;BME280;26963;42.666;23.366;2023-01-30T06:45:17;94966.34;;;2.09;56.62
40205;BME280;26963;42.666;23.366;2023-01-30T06:47:51;95081.13;;;2.82;56.74
40205;BME280;26963;42.666;23.366;2023-01-30T06:50:18;95058.03;;;2.60;56.85
40205;BME280;26963;42.666;23.366;2023-01-30T06:52:46;94945.09;;;1.87;57.18
40205;BME280;26963;42.666;23.366;2023-01-30T06:55:16;95004.34;;;2.25;57.15
40205;BME280;26963;42.666;23.366;2023-01-30T06:57:42;95072.38;;;2.64;57.07
40205;BME280;26963;42.666;23.366;2023-01-30T07:00:11;95085.41;;;2.71;56.49
40205;BME280;26963;42.666;23.366;2023-01-30T07:02:37;95069.56;;;2.54;56.80
40205;BME280;26963;42.666;23.366;2023-01-30T07:05:05;95083.00;;;2.52;57.03
40205;BME280;26963;42.666;23.366;2023-01-30T07:07:31;95064.03;;;2.26;55.42
40205;BME280;26963;42.666;23.366;2023-01-30T07:09:57;95013.16;;;1.73;57.60
40205;BME280;26963;42.666;23.366;2023-01-30T07:12:24;95064.16;;;1.91;58.90
40205;BME280;26963;42.666;23.366;2023-01-30T07:14:51;95096.03;;;2.01;59.05
40205;BME280;26963;42.666;23.366;2023-01-30T07:17:17;95086.41;;;1.95;59.14
40205;BME280;26963;42.666;23.366;2023-01-30T07:19:43;95069.34;;;1.86;59.83
40205;BME280;26963;42.666;23.366;2023-01-30T07:22:09;95063.38;;;1.78;60.22
40205;BME280;26963;42.666;23.366;2023-01-30T07:24:35;95086.00;;;1.86;60.34
40205;BME280;26963;42.666;23.366;2023-01-30T07:27:00;95047.84;;;1.65;60.33
40205;BME280;26963;42.666;23.366;2023-01-30T07:29:26;95048.28;;;1.62;60.18
40205;BME280;26963;42.666;23.366;2023-01-30T07:31:51;94979.03;;;1.02;60.16
40205;BME280;26963;42.666;23.366;2023-01-30T07:34:17;95038.47;;;1.45;60.84
40205;BME280;26963;42.666;23.366;2023-01-30T07:36:42;95019.69;;;1.30;60.31
40205;BME280;26963;42.666;23.366;2023-01-30T07:39:08;95104.03;;;1.77;60.70
40205;BME280;26963;42.666;23.366;2023-01-30T07:41:34;95090.16;;;1.70;60.17
40205;BME280;26963;42.666;23.366;2023-01-30T07:44:01;95118.44;;;1.87;60.04
40205;BME280;26963;42.666;23.366;2023-01-30T07:46:27;95107.69;;;1.76;60.22
40205;BME280;26963;42.666;23.366;2023-01-30T07:49:00;95081.75;;;1.73;60.37
40205;BME280;26963;42.666;23.366;2023-01-30T07:51:26;95034.00;;;1.46;60.69
40205;BME280;26963;42.666;23.366;2023-01-30T07:53:54;95095.84;;;1.91;59.57
40205;BME280;26963;42.666;23.366;2023-01-30T07:56:20;95087.22;;;1.84;59.74
40205;BME280;26963;42.666;23.366;2023-01-30T07:58:49;95095.00;;;2.02;60.89
40205;BME280;26963;42.666;23.366;2023-01-30T08:01:16;95093.63;;;2.00;60.08
40205;BME280;26963;42.666;23.366;2023-01-30T08:03:42;95092.03;;;1.99;60.13
40205;BME280;26963;42.666;23.366;2023-01-30T08:06:10;95033.63;;;1.66;59.09
40205;BME280;26963;42.666;23.366;2023-01-30T08:08:37;95021.47;;;1.65;59.72
40205;BME280;26963;42.666;23.366;2023-01-30T08:11:02;95071.81;;;2.04;59.70
40205;BME280;26963;42.666;23.366;2023-01-30T08:13:28;95037.09;;;1.84;59.41
40205;BME280;26963;42.666;23.366;2023-01-30T08:15:53;95075.00;;;2.06;58.85
40205;BME280;26963;42.666;23.366;2023-01-30T08:18:19;95066.47;;;1.99;58.66
40205;BME280;26963;42.666;23.366;2023-01-30T08:20:44;94996.34;;;1.62;59.44
40205;BME280;26963;42.666;23.366;2023-01-30T08:23:10;95078.91;;;2.16;59.76
40205;BME280;26963;42.666;23.366;2023-01-30T08:25:36;95071.78;;;2.16;59.16
40205;BME280;26963;42.666;23.366;2023-01-30T08:28:03;95065.72;;;2.16;59.06
40205;BME280;26963;42.666;23.366;2023-01-30T08:30:29;95000.56;;;1.75;59.03
40205;BME280;26963;42.666;23.366;2023-01-30T08:32:56;95064.09;;;2.15;59.01
40205;BME280;26963;42.666;23.366;2023-01-30T08:35:22;94955.25;;;1.50;59.17
40205;BME280;26963;42.666;23.366;2023-01-30T08:37:48;95033.78;;;2.17;58.76
40205;BME280;26963;42.666;23.366;2023-01-30T08:40:14;94895.44;;;1.38;58.07
40205;BME280;26963;42.666;23.366;2023-01-30T08:42:42;95029.91;;;2.37;56.79
40205;BME280;26963;42.666;23.366;2023-01-30T08:45:08;95043.75;;;2.44;57.24
40205;BME280;26963;42.666;23.366;2023-01-30T08:47:34;94982.56;;;2.01;57.91
40205;BME280;26963;42.666;23.366;2023-01-30T08:50:00;95031.25;;;2.39;57.41
40205;BME280;26963;42.666;23.366;2023-01-30T08:52:26;95032.25;;;2.33;57.41
40205;BME280;26963;42.666;23.366;2023-01-30T08:54:51;95041.69;;;2.46;57.57
40205;BME280;26963;42.666;23.366;2023-01-30T08:57:17;94986.88;;;2.07;57.39
40205;BME280;26963;42.666;23.366;2023-01-30T08:59:42;95032.88;;;2.40;57.50
40205;BME280;26963;42.666;23.366;2023-01-30T09:02:12;95043.06;;;2.49;57.11
40205;BME280;26963;42.666;23.366;2023-01-30T09:04:37;95034.09;;;2.50;56.01
40205;BME280;26963;42.666;23.366;2023-01-30T09:07:03;95005.84;;;2.50;55.91
40205;BME280;26963;42.666;23.366;2023-01-30T09:09:29;94935.78;;;2.14;55.77
40205;BME280;26963;42.666;23.366;2023-01-30T09:11:54;95011.38;;;2.49;55.83
40205;BME280;26963;42.666;23.366;2023-01-30T09:14:20;94990.44;;;2.30;56.47
40205;BME280;26963;42.666;23.366;2023-01-30T09:16:46;94961.47;;;2.18;56.48
40205;BME280;26963;42.666;23.366;2023-01-30T09:19:12;95001.06;;;2.47;56.28
40205;BME280;26963;42.666;23.366;2023-01-30T09:21:38;94995.44;;;2.43;56.17
40205;BME280;26963;42.666;23.366;2023-01-30T09:24:05;95012.56;;;2.58;56.63
40205;BME280;26963;42.666;23.366;2023-01-30T09:26:31;95022.81;;;2.71;56.17
40205;BME280;26963;42.666;23.366;2023-01-30T09:28:56;95005.38;;;2.70;56.20
40205;BME280;26963;42.666;23.366;2023-01-30T09:31:22;95000.56;;;2.67;55.67
40205;BME280;26963;42.666;23.366;2023-01-30T09:33:50;95015.28;;;2.63;55.29
40205;BME280;26963;42.666;23.366;2023-01-30T09:36:16;95029.06;;;2.65;56.29
40205;BME280;26963;42.666;23.366;2023-01-30T09:38:41;94996.56;;;2.48;55.89
40205;BME280;26963;42.666;23.366;2023-01-30T09:41:48;95011.53;;;2.59;56.21
40205;BME280;26963;42.666;23.366;2023-01-30T09:55:17;95002.25;;;2.56;55.35
40205;BME280;26963;42.666;23.366;2023-01-30T09:57:46;94904.34;;;1.95;55.46
40205;BME280;26963;42.666;23.366;2023-01-30T10:00:23;94990.94;;;2.44;55.89
40205;BME280;26963;42.666;23.366;2023-01-30T10:03:08;94924.56;;;2.06;56.28
40205;BME280;26963;42.666;23.366;2023-01-30T10:05:45;94985.81;;;2.54;55.83
40205;BME280;26963;42.666;23.366;2023-01-30T10:21:54;94913.41;;;2.33;55.70
40205;BME280;26963;42.666;23.366;2023-01-30T10:25:09;94953.63;;;2.74;55.32
40205;BME280;26963;42.666;23.366;2023-01-30T10:27:48;94962.06;;;2.71;54.27
40205;BME280;26963;42.666;23.366;2023-01-30T10:30:15;94877.97;;;2.29;54.79
40205;BME280;26963;42.666;23.366;2023-01-30T10:32:49;94927.25;;;2.57;55.00
40205;BME280;26963;42.666;23.366;2023-01-30T10:35:26;94847.09;;;2.12;54.42
40205;BME280;26963;42.666;23.366;2023-01-30T10:38:19;94926.56;;;2.67;54.94
40205;BME280;26963;42.666;23.366;2023-01-30T10:40:48;94925.47;;;2.63;54.70
40205;BME280;26963;42.666;23.366;2023-01-30T10:43:38;94887.72;;;2.45;54.72
40205;BME280;26963;42.666;23.366;2023-01-30T10:49:04;94915.94;;;2.62;53.59
40205;BME280;26963;42.666;23.366;2023-01-30T10:54:34;94895.88;;;2.61;54.39
40205;BME280;26963;42.666;23.366;2023-01-30T11:02:37;94845.78;;;2.49;54.44
40205;BME280;26963;42.666;23.366;2023-01-30T11:05:24;94777.63;;;2.29;53.66
40205;BME280;26963;42.666;23.366;2023-01-30T11:07:51;94846.97;;;2.81;53.96
40205;BME280;26963;42.666;23.366;2023-01-30T11:10:25;94825.97;;;2.69;53.40
40205;BME280;26963;42.666;23.366;2023-01-30T11:12:57;94840.44;;;3.05;53.72
40205;BME280;26963;42.666;23.366;2023-01-30T11:15:23;94801.25;;;3.02;52.94
40205;BME280;26963;42.666;23.366;2023-01-30T11:17:49;94784.72;;;2.90;52.24
40205;BME280;26963;42.666;23.366;2023-01-30T11:20:21;94798.88;;;3.01;50.93
40205;BME280;26963;42.666;23.366;2023-01-30T11:23:02;94805.63;;;3.14;51.34
40205;BME280;26963;42.666;23.366;2023-01-30T11:25:28;94795.59;;;3.16;50.71
40205;BME280;26963;42.666;23.366;2023-01-30T11:27:59;94827.25;;;3.60;50.75
40205;BME280;26963;42.666;23.366;2023-01-30T11:30:35;94819.22;;;3.82;50.89
40205;BME280;26963;42.666;23.366;2023-01-30T11:33:12;94779.00;;;3.80;50.37
40205;BME280;26963;42.666;23.366;2023-01-30T11:35:51;94814.41;;;4.12;49.81
40205;BME280;26963;42.666;23.366;2023-01-30T11:38:29;94751.97;;;3.78;48.80
40205;BME280;26963;42.666;23.366;2023-01-30T11:41:18;94801.78;;;4.24;49.58
40205;BME280;26963;42.666;23.366;2023-01-30T11:43:44;94786.84;;;4.50;49.37
40205;BME280;26963;42.666;23.366;2023-01-30T11:46:12;94752.38;;;4.40;49.32
40205;BME280;26963;42.666;23.366;2023-01-30T11:48:58;94790.72;;;4.80;49.52
40205;BME280;26963;42.666;23.366;2023-01-30T11:51:25;94773.00;;;4.91;47.15
40205;BME280;26963;42.666;23.366;2023-01-30T11:54:06;94762.19;;;5.13;47.70
40205;BME280;26963;42.666;23.366;2023-01-30T11:56:46;94693.97;;;4.78;46.67
40205;BME280;26963;42.666;23.366;2023-01-30T12:02:32;94745.75;;;5.27;47.10
40205;BME280;26963;42.666;23.366;2023-01-30T12:05:00;94627.16;;;4.70;46.30
40205;BME280;26963;42.666;23.366;2023-01-30T12:07:32;94681.31;;;5.16;46.36
40205;BME280;26963;42.666;23.366;2023-01-30T12:09:58;94722.72;;;5.58;46.56
40205;BME280;26963;42.666;23.366;2023-01-30T12:12:33;94706.25;;;5.35;45.48
40205;BME280;26963;42.666;23.366;2023-01-30T12:15:27;94728.00;;;5.68;45.77
40205;BME280;26963;42.666;23.366;2023-01-30T12:20:38;94697.50;;;5.61;45.50
40205;BME280;26963;42.666;23.366;2023-01-30T12:23:17;94704.66;;;5.65;45.37
40205;BME280;26963;42.666;23.366;2023-01-30T12:26:01;94683.19;;;5.41;45.75
40205;BME280;26963;42.666;23.366;2023-01-30T12:28:37;94694.06;;;5.45;45.10
40205;BME280;26963;42.666;23.366;2023-01-30T12:31:13;94672.25;;;4.96;45.72
40205;BME280;26963;42.666;23.366;2023-01-30T12:33:43;94682.59;;;4.98;45.58
40205;BME280;26963;42.666;23.366;2023-01-30T12:36:31;94624.97;;;4.52;46.03
40205;BME280;26963;42.666;23.366;2023-01-30T12:39:12;94439.06;;;3.35;46.08
40205;BME280;26963;42.666;23.366;2023-01-30T12:41:58;94686.78;;;4.68;46.96
40205;BME280;26963;42.666;23.366;2023-01-30T12:52:27;94610.97;;;3.88;47.45
40205;BME280;26963;42.666;23.366;2023-01-30T13:01:01;94647.50;;;4.54;47.62
40205;BME280;26963;42.666;23.366;2023-01-30T13:03:51;94644.94;;;4.75;46.60
40205;BME280;26963;42.666;23.366;2023-01-30T13:12:40;94653.63;;;4.55;47.64
40205;BME280;26963;42.666;23.366;2023-01-30T13:26:20;94632.69;;;3.95;48.47
40205;BME280;26963;42.666;23.366;2023-01-30T13:28:55;94595.56;;;3.74;48.89
40205;BME280;26963;42.666;23.366;2023-01-30T13:31:24;94623.22;;;3.99;48.96
40205;BME280;26963;42.666;23.366;2023-01-30T13:33:57;94627.97;;;4.02;48.59
40205;BME280;26963;42.666;23.366;2023-01-30T13:36:50;94628.56;;;4.15;48.78
40205;BME280;26963;42.666;23.366;2023-01-30T13:39:42;94625.94;;;4.20;48.24
40205;BME280;26963;42.666;23.366;2023-01-30T13:42:36;94608.72;;;4.17;48.65
40205;BME280;26963;42.666;23.366;2023-01-30T13:45:03;94476.91;;;3.46;48.03
40205;BME280;26963;42.666;23.366;2023-01-30T13:53:00;94540.94;;;3.53;48.58
40205;BME280;26963;42.666;23.366;2023-01-30T14:00:38;94593.97;;;3.73;48.83
40205;BME280;26963;42.666;23.366;2023-01-30T14:08:19;94621.97;;;3.64;48.92
40205;BME280;26963;42.666;23.366;2023-01-30T14:10:46;94539.63;;;3.07;49.18
40205;BME280;26963;42.666;23.366;2023-01-30T14:13:14;94556.88;;;3.20;49.05
40205;BME280;26963;42.666;23.366;2023-01-30T14:18:27;94617.25;;;3.71;49.68
40205;BME280;26963;42.666;23.366;2023-01-30T14:21:13;94620.41;;;3.73;48.83
40205;BME280;26963;42.666;23.366;2023-01-30T14:23:56;94605.28;;;3.58;48.49
40205;BME280;26963;42.666;23.366;2023-01-30T14:40:00;94618.66;;;3.41;50.09
40205;BME280;26963;42.666;23.366;2023-01-30T14:42:29;94547.75;;;2.96;49.54
40205;BME280;26963;42.666;23.366;2023-01-30T14:47:34;94597.78;;;3.45;48.98
40205;BME280;26963;42.666;23.366;2023-01-30T14:50:01;94586.63;;;3.38;48.95
40205;BME280;26963;42.666;23.366;2023-01-30T14:52:37;94598.06;;;3.49;48.98
40205;BME280;26963;42.666;23.366;2023-01-30T14:55:05;94583.16;;;3.32;49.39
40205;BME280;26963;42.666;23.366;2023-01-30T14:57:49;94591.84;;;3.28;49.68
40205;BME280;26963;42.666;23.366;2023-01-30T15:00:18;94594.53;;;3.33;49.24
40205;BME280;26963;42.666;23.366;2023-01-30T15:02:57;94580.88;;;3.08;49.54
40205;BME280;26963;42.666;23.366;2023-01-30T15:05:31;94590.47;;;3.20;49.94
40205;BME280;26963;42.666;23.366;2023-01-30T15:08:02;94591.00;;;3.17;49.94
40205;BME280;26963;42.666;23.366;2023-01-30T15:18:21;94607.59;;;2.80;50.67
40205;BME280;26963;42.666;23.366;2023-01-30T15:26:25;94607.31;;;2.49;51.35
40205;BME280;26963;42.666;23.366;2023-01-30T15:31:37;94534.56;;;2.08;51.62
40205;BME280;26963;42.666;23.366;2023-01-30T15:34:14;94578.50;;;2.20;51.48
40205;BME280;26963;42.666;23.366;2023-01-30T15:36:43;94607.22;;;2.38;52.16
40205;BME280;26963;42.666;23.366;2023-01-30T15:39:34;94602.91;;;2.32;51.79
40205;BME280;26963;42.666;23.366;2023-01-30T15:42:05;94591.44;;;2.21;52.33
40205;BME280;26963;42.666;23.366;2023-01-30T15:50:06;94583.97;;;2.13;52.67
40205;BME280;26963;42.666;23.366;2023-01-30T15:52:37;94604.50;;;2.33;52.83
40205;BME280;26963;42.666;23.366;2023-01-30T15:55:05;94600.75;;;2.29;52.29
40205;BME280;26963;42.666;23.366;2023-01-30T15:57:35;94569.72;;;2.14;52.28